sensor_id;sensor_type;location;lat;lon;timestamp;temperature;humidity
55064;DHT22;40963;52.168;21.296;2023-02-28T00:01:17;-3.10;99.90
55064;DHT22;40963;52.168;21.296;2023-02-28T00:03:42;-3.10;99.90
55064;DHT22;40963;52.168;21.296;2023-02-28T00:06:09;-3.20;99.90
55064;DHT22;40963;52.168;21.296;2023-02-28T00:08:37;-3.20;99.90
55064;DHT22;40963;52.168;21.296;2023-02-28T00:11:09;-3.30;99.90
55064;DHT22;40963;52.168;21.296;2023-02-28T00:13:38;-3.30;99.90
55064;DHT22;40963;52.168;21.296;2023-02-28T00:16:09;-3.40;99.90
55064;DHT22;40963;52.168;21.296;2023-02-28T00:18:35;-3.40;99.90
55064;DHT22;40963;52.168;21.296;2023-02-28T00:21:01;-3.40;99.90
55064;DHT22;40963;52.168;21.296;2023-02-28T00:23:27;-3.50;99.90
55064;DHT22;40963;52.168;21.296;2023-02-28T00:25:53;-3.50;99.90
55064;DHT22;40963;52.168;21.296;2023-02-28T00:28:19;-3.60;99.90
55064;DHT22;40963;52.168;21.296;2023-02-28T00:30:45;-3.50;99.90
55064;DHT22;40963;52.168;21.296;2023-02-28T00:33:11;-3.60;99.90
55064;DHT22;40963;52.168;21.296;2023-02-28T00:35:36;-3.60;99.90
55064;DHT22;40963;52.168;21.296;2023-02-28T00:38:02;-3.60;99.90
55064;DHT22;40963;52.168;21.296;2023-02-28T00:40:28;-3.70;99.90
55064;DHT22;40963;52.168;21.296;2023-02-28T00:42:54;-3.70;99.90
55064;DHT22;40963;52.168;21.296;2023-02-28T00:45:20;-3.70;99.90
55064;DHT22;40963;52.168;21.296;2023-02-28T00:47:46;-3.70;99.90
55064;DHT22;40963;52.168;21.296;2023-02-28T00:50:18;-3.80;99.90
55064;DHT22;40963;52.168;21.296;2023-02-28T00:52:44;-3.90;99.90
55064;DHT22;40963;52.168;21.296;2023-02-28T00:55:10;-3.90;99.90
55064;DHT22;40963;52.168;21.296;2023-02-28T00:57:36;-3.90;99.90
55064;DHT22;40963;52.168;21.296;2023-02-28T01:00:03;-4.00;99.90
55064;DHT22;40963;52.168;21.296;2023-02-28T01:02:29;-4.00;99.90
55064;DHT22;40963;52.168;21.296;2023-02-28T01:04:54;-4.00;99.90
55064;DHT22;40963;52.168;21.296;2023-02-28T01:07:20;-4.00;99.90
55064;DHT22;40963;52.168;21.296;2023-02-28T01:09:46;-4.10;99.90
55064;DHT22;40963;52.168;21.296;2023-02-28T01:12:11;-4.10;99.90
55064;DHT22;40963;52.168;21.296;2023-02-28T01:14:37;-4.10;99.90
55064;DHT22;40963;52.168;21.296;2023-02-28T01:17:03;-4.10;99.90
55064;DHT22;40963;52.168;21.296;2023-02-28T01:19:29;-4.10;99.90
55064;DHT22;40963;52.168;21.296;2023-02-28T01:21:54;-4.10;99.90
55064;DHT22;40963;52.168;21.296;2023-02-28T01:24:20;-4.20;99.90
55064;DHT22;40963;52.168;21.296;2023-02-28T01:26:45;-4.20;99.90
55064;DHT22;40963;52.168;21.296;2023-02-28T01:29:11;-4.30;99.90
55064;DHT22;40963;52.168;21.296;2023-02-28T01:31:37;-4.30;99.90
55064;DHT22;40963;52.168;21.296;2023-02-28T01:34:03;-4.30;99.90
55064;DHT22;40963;52.168;21.296;2023-02-28T01:36:28;-4.30;99.90
55064;DHT22;40963;52.168;21.296;2023-02-28T01:38:54;-4.40;99.90
55064;DHT22;40963;52.168;21.296;2023-02-28T01:41:28;-4.40;99.90
55064;DHT22;40963;52.168;21.296;2023-02-28T01:43:56;-4.40;99.90
55064;DHT22;40963;52.168;21.296;2023-02-28T01:46:21;-4.40;99.90
55064;DHT22;40963;52.168;21.296;2023-02-28T01:49:03;-4.30;99.90
55064;DHT22;40963;52.168;21.296;2023-02-28T01:51:46;-4.30;99.90
55064;DHT22;40963;52.168;21.296;2023-02-28T01:54:36;-4.30;99.90
55064;DHT22;40963;52.168;21.296;2023-02-28T01:57:05;-4.30;99.90
55064;DHT22;40963;52.168;21.296;2023-02-28T02:02:02;-4.30;99.90
55064;DHT22;40963;52.168;21.296;2023-02-28T02:04:38;-4.30;99.90
55064;DHT22;40963;52.168;21.296;2023-02-28T02:07:05;-4.30;99.90
55064;DHT22;40963;52.168;21.296;2023-02-28T02:09:31;-4.30;99.90
55064;DHT22;40963;52.168;21.296;2023-02-28T02:11:57;-4.30;99.90
55064;DHT22;40963;52.168;21.296;2023-02-28T02:14:37;-4.30;99.90
55064;DHT22;40963;52.168;21.296;2023-02-28T02:22:59;-4.30;99.90
55064;DHT22;40963;52.168;21.296;2023-02-28T02:25:42;-4.30;99.90
55064;DHT22;40963;52.168;21.296;2023-02-28T02:28:25;-4.40;99.90
55064;DHT22;40963;52.168;21.296;2023-02-28T02:31:32;-4.40;99.90
55064;DHT22;40963;52.168;21.296;2023-02-28T02:34:25;-4.40;99.90
55064;DHT22;40963;52.168;21.296;2023-02-28T02:40:08;-4.40;99.90
55064;DHT22;40963;52.168;21.296;2023-02-28T02:45:32;-4.50;99.90
55064;DHT22;40963;52.168;21.296;2023-02-28T02:48:04;-4.50;99.90
55064;DHT22;40963;52.168;21.296;2023-02-28T02:50:41;-4.50;99.90
55064;DHT22;40963;52.168;21.296;2023-02-28T02:53:09;-4.50;99.90
55064;DHT22;40963;52.168;21.296;2023-02-28T02:55:40;-4.50;99.90
55064;DHT22;40963;52.168;21.296;2023-02-28T02:58:10;-4.60;99.90
55064;DHT22;40963;52.168;21.296;2023-02-28T03:00:42;-4.60;99.90
55064;DHT22;40963;52.168;21.296;2023-02-28T03:03:09;-4.60;99.90
55064;DHT22;40963;52.168;21.296;2023-02-28T03:05:47;-4.60;99.90
55064;DHT22;40963;52.168;21.296;2023-02-28T03:08:13;-4.60;99.90
55064;DHT22;40963;52.168;21.296;2023-02-28T03:10:42;-4.60;99.90
55064;DHT22;40963;52.168;21.296;2023-02-28T03:13:15;-4.60;99.90
55064;DHT22;40963;52.168;21.296;2023-02-28T03:23:48;-4.70;99.90
55064;DHT22;40963;52.168;21.296;2023-02-28T03:26:23;-4.70;99.90
55064;DHT22;40963;52.168;21.296;2023-02-28T03:34:15;-4.80;99.90
55064;DHT22;40963;52.168;21.296;2023-02-28T03:36:50;-4.80;99.90
55064;DHT22;40963;52.168;21.296;2023-02-28T03:39:21;-4.80;99.90
55064;DHT22;40963;52.168;21.296;2023-02-28T03:41:56;-4.80;99.90
55064;DHT22;40963;52.168;21.296;2023-02-28T03:44:52;-4.80;99.90
55064;DHT22;40963;52.168;21.296;2023-02-28T03:47:24;-4.80;99.90
55064;DHT22;40963;52.168;21.296;2023-02-28T03:52:53;-4.90;99.90
55064;DHT22;40963;52.168;21.296;2023-02-28T03:55:20;-4.90;99.90
55064;DHT22;40963;52.168;21.296;2023-02-28T03:58:05;-4.90;99.90
55064;DHT22;40963;52.168;21.296;2023-02-28T04:00:45;-5.00;99.90
55064;DHT22;40963;52.168;21.296;2023-02-28T04:03:12;-5.00;99.90
55064;DHT22;40963;52.168;21.296;2023-02-28T04:05:54;-5.00;99.90
55064;DHT22;40963;52.168;21.296;2023-02-28T04:08:21;-5.00;99.90
55064;DHT22;40963;52.168;21.296;2023-02-28T04:10:54;-5.10;99.90
55064;DHT22;40963;52.168;21.296;2023-02-28T04:13:21;-5.00;99.90
55064;DHT22;40963;52.168;21.296;2023-02-28T04:15:47;-5.00;99.90
55064;DHT22;40963;52.168;21.296;2023-02-28T04:18:12;-5.00;99.90
55064;DHT22;40963;52.168;21.296;2023-02-28T04:20:38;-5.00;99.90
55064;DHT22;40963;52.168;21.296;2023-02-28T04:23:04;-5.00;99.90
55064;DHT22;40963;52.168;21.296;2023-02-28T04:25:29;-5.10;99.90
55064;DHT22;40963;52.168;21.296;2023-02-28T04:27:55;-5.10;99.90
55064;DHT22;40963;52.168;21.296;2023-02-28T04:30:21;-5.10;99.90
55064;DHT22;40963;52.168;21.296;2023-02-28T04:32:46;-5.10;99.90
55064;DHT22;40963;52.168;21.296;2023-02-28T04:35:12;-5.10;99.90
55064;DHT22;40963;52.168;21.296;2023-02-28T04:37:38;-5.10;99.90
55064;DHT22;40963;52.168;21.296;2023-02-28T04:40:04;-5.10;99.90
55064;DHT22;40963;52.168;21.296;2023-02-28T04:42:30;-5.10;99.90
55064;DHT22;40963;52.168;21.296;2023-02-28T04:45:02;-5.10;99.90
55064;DHT22;40963;52.168;21.296;2023-02-28T04:47:28;-5.20;99.90
55064;DHT22;40963;52.168;21.296;2023-02-28T04:49:54;-5.20;99.90
55064;DHT22;40963;52.168;21.296;2023-02-28T04:52:19;-5.20;99.90
55064;DHT22;40963;52.168;21.296;2023-02-28T04:54:45;-5.20;99.90
55064;DHT22;40963;52.168;21.296;2023-02-28T04:57:11;-5.20;99.90
55064;DHT22;40963;52.168;21.296;2023-02-28T04:59:36;-5.20;99.90
55064;DHT22;40963;52.168;21.296;2023-02-28T05:02:02;-5.30;99.90
55064;DHT22;40963;52.168;21.296;2023-02-28T05:04:32;-5.20;99.90
55064;DHT22;40963;52.168;21.296;2023-02-28T05:07:00;-5.20;99.90
55064;DHT22;40963;52.168;21.296;2023-02-28T05:09:26;-5.20;99.90
55064;DHT22;40963;52.168;21.296;2023-02-28T05:11:51;-5.20;99.90
55064;DHT22;40963;52.168;21.296;2023-02-28T05:14:17;-5.20;99.90
55064;DHT22;40963;52.168;21.296;2023-02-28T05:16:43;-5.20;99.90
55064;DHT22;40963;52.168;21.296;2023-02-28T05:19:09;-5.20;99.90
55064;DHT22;40963;52.168;21.296;2023-02-28T05:21:37;-5.30;99.90
55064;DHT22;40963;52.168;21.296;2023-02-28T05:24:09;-5.30;99.90
55064;DHT22;40963;52.168;21.296;2023-02-28T05:26:37;-5.30;99.90
55064;DHT22;40963;52.168;21.296;2023-02-28T05:29:03;-5.30;99.90
55064;DHT22;40963;52.168;21.296;2023-02-28T05:31:29;-5.30;99.90
55064;DHT22;40963;52.168;21.296;2023-02-28T05:33:55;-5.30;99.90
55064;DHT22;40963;52.168;21.296;2023-02-28T05:36:20;-5.30;99.90
55064;DHT22;40963;52.168;21.296;2023-02-28T05:38:50;-5.30;99.90
55064;DHT22;40963;52.168;21.296;2023-02-28T05:41:17;-5.30;99.90
55064;DHT22;40963;52.168;21.296;2023-02-28T05:43:43;-5.20;99.90
55064;DHT22;40963;52.168;21.296;2023-02-28T05:46:11;-5.20;99.90
55064;DHT22;40963;52.168;21.296;2023-02-28T05:48:38;-5.20;99.90
55064;DHT22;40963;52.168;21.296;2023-02-28T05:51:06;-5.20;99.90
55064;DHT22;40963;52.168;21.296;2023-02-28T05:53:32;-5.10;99.90
55064;DHT22;40963;52.168;21.296;2023-02-28T05:55:58;-5.10;99.90
55064;DHT22;40963;52.168;21.296;2023-02-28T05:58:24;-5.10;99.90
55064;DHT22;40963;52.168;21.296;2023-02-28T06:01:00;-5.10;99.90
55064;DHT22;40963;52.168;21.296;2023-02-28T06:03:27;-5.00;99.90
55064;DHT22;40963;52.168;21.296;2023-02-28T06:05:52;-5.00;99.90
55064;DHT22;40963;52.168;21.296;2023-02-28T06:08:18;-5.00;99.90
55064;DHT22;40963;52.168;21.296;2023-02-28T06:10:44;-5.00;99.90
55064;DHT22;40963;52.168;21.296;2023-02-28T06:13:10;-4.90;99.90
55064;DHT22;40963;52.168;21.296;2023-02-28T06:15:37;-4.90;99.90
55064;DHT22;40963;52.168;21.296;2023-02-28T06:18:03;-4.80;99.90
55064;DHT22;40963;52.168;21.296;2023-02-28T06:20:29;-4.80;99.90
55064;DHT22;40963;52.168;21.296;2023-02-28T06:22:57;-4.70;99.90
55064;DHT22;40963;52.168;21.296;2023-02-28T06:25:24;-4.70;99.90
55064;DHT22;40963;52.168;21.296;2023-02-28T06:27:50;-4.60;99.90
55064;DHT22;40963;52.168;21.296;2023-02-28T06:30:16;-4.50;99.90
55064;DHT22;40963;52.168;21.296;2023-02-28T06:32:42;-4.40;99.90
55064;DHT22;40963;52.168;21.296;2023-02-28T06:35:08;-4.40;99.90
55064;DHT22;40963;52.168;21.296;2023-02-28T06:37:33;-4.30;99.90
55064;DHT22;40963;52.168;21.296;2023-02-28T06:39:59;-4.20;99.90
55064;DHT22;40963;52.168;21.296;2023-02-28T06:42:25;-4.10;99.90
55064;DHT22;40963;52.168;21.296;2023-02-28T06:44:57;-4.00;99.90
55064;DHT22;40963;52.168;21.296;2023-02-28T06:47:23;-3.90;99.90
55064;DHT22;40963;52.168;21.296;2023-02-28T06:49:49;-3.80;99.90
55064;DHT22;40963;52.168;21.296;2023-02-28T06:52:15;-3.70;99.90
55064;DHT22;40963;52.168;21.296;2023-02-28T06:54:41;-3.60;99.90
55064;DHT22;40963;52.168;21.296;2023-02-28T06:57:07;-3.60;99.90
55064;DHT22;40963;52.168;21.296;2023-02-28T06:59:33;-3.40;99.90
55064;DHT22;40963;52.168;21.296;2023-02-28T07:02:00;-3.40;99.90
55064;DHT22;40963;52.168;21.296;2023-02-28T07:04:27;-3.20;99.90
55064;DHT22;40963;52.168;21.296;2023-02-28T07:06:54;-3.10;99.90
55064;DHT22;40963;52.168;21.296;2023-02-28T07:09:22;-3.00;99.90
55064;DHT22;40963;52.168;21.296;2023-02-28T07:11:47;-2.90;99.90
55064;DHT22;40963;52.168;21.296;2023-02-28T07:14:13;-2.70;99.90
55064;DHT22;40963;52.168;21.296;2023-02-28T07:16:39;-2.60;99.90
55064;DHT22;40963;52.168;21.296;2023-02-28T07:19:04;-2.50;99.90
55064;DHT22;40963;52.168;21.296;2023-02-28T07:21:30;-2.40;99.90
55064;DHT22;40963;52.168;21.296;2023-02-28T07:23:56;-2.20;99.90
55064;DHT22;40963;52.168;21.296;2023-02-28T07:26:22;-2.10;99.90
55064;DHT22;40963;52.168;21.296;2023-02-28T07:28:48;-1.90;99.90
55064;DHT22;40963;52.168;21.296;2023-02-28T07:31:14;-1.80;99.90
55064;DHT22;40963;52.168;21.296;2023-02-28T07:33:40;-1.70;99.90
55064;DHT22;40963;52.168;21.296;2023-02-28T07:36:08;-1.50;99.90
55064;DHT22;40963;52.168;21.296;2023-02-28T07:38:36;-1.40;99.90
55064;DHT22;40963;52.168;21.296;2023-02-28T07:41:03;-1.20;99.90
55064;DHT22;40963;52.168;21.296;2023-02-28T07:43:32;-1.00;99.90
55064;DHT22;40963;52.168;21.296;2023-02-28T07:46:06;-0.90;99.90
55064;DHT22;40963;52.168;21.296;2023-02-28T07:48:32;-0.70;99.90
55064;DHT22;40963;52.168;21.296;2023-02-28T07:50:58;-0.60;99.90
55064;DHT22;40963;52.168;21.296;2023-02-28T07:53:25;-0.50;99.90
55064;DHT22;40963;52.168;21.296;2023-02-28T07:55:50;-0.40;99.90
55064;DHT22;40963;52.168;21.296;2023-02-28T07:58:16;-0.20;99.90
55064;DHT22;40963;52.168;21.296;2023-02-28T08:00:42;-0.10;99.90
55064;DHT22;40963;52.168;21.296;2023-02-28T08:03:11;0.00;99.90
55064;DHT22;40963;52.168;21.296;2023-02-28T08:05:40;0.00;99.90
55064;DHT22;40963;52.168;21.296;2023-02-28T08:08:07;0.10;99.90
55064;DHT22;40963;52.168;21.296;2023-02-28T08:10:32;0.20;99.90
55064;DHT22;40963;52.168;21.296;2023-02-28T08:12:58;0.30;99.90
55064;DHT22;40963;52.168;21.296;2023-02-28T08:15:24;0.40;99.90
55064;DHT22;40963;52.168;21.296;2023-02-28T08:17:50;0.50;99.90
55064;DHT22;40963;52.168;21.296;2023-02-28T08:20:15;0.50;99.90
55064;DHT22;40963;52.168;21.296;2023-02-28T08:22:41;0.50;99.90
55064;DHT22;40963;52.168;21.296;2023-02-28T08:25:07;0.50;99.90
55064;DHT22;40963;52.168;21.296;2023-02-28T08:27:33;0.60;99.90
55064;DHT22;40963;52.168;21.296;2023-02-28T08:29:59;0.60;99.90
55064;DHT22;40963;52.168;21.296;2023-02-28T08:32:25;0.60;99.60
55064;DHT22;40963;52.168;21.296;2023-02-28T08:34:50;0.70;98.90
55064;DHT22;40963;52.168;21.296;2023-02-28T08:37:16;0.70;98.20
55064;DHT22;40963;52.168;21.296;2023-02-28T08:39:42;0.80;98.00
55064;DHT22;40963;52.168;21.296;2023-02-28T08:42:08;0.80;97.30
55064;DHT22;40963;52.168;21.296;2023-02-28T08:44:34;0.90;97.00
55064;DHT22;40963;52.168;21.296;2023-02-28T08:46:59;1.00;96.90
55064;DHT22;40963;52.168;21.296;2023-02-28T08:49:25;1.10;96.10
55064;DHT22;40963;52.168;21.296;2023-02-28T08:51:51;1.20;95.30
55064;DHT22;40963;52.168;21.296;2023-02-28T08:54:17;1.20;93.50
55064;DHT22;40963;52.168;21.296;2023-02-28T08:56:45;1.10;92.10
55064;DHT22;40963;52.168;21.296;2023-02-28T08:59:12;1.10;91.80
55064;DHT22;40963;52.168;21.296;2023-02-28T09:01:38;1.10;90.50
55064;DHT22;40963;52.168;21.296;2023-02-28T09:04:03;1.00;90.10
55064;DHT22;40963;52.168;21.296;2023-02-28T09:06:29;1.00;89.70
55064;DHT22;40963;52.168;21.296;2023-02-28T09:08:58;1.00;89.70
55064;DHT22;40963;52.168;21.296;2023-02-28T09:11:25;1.00;89.40
55064;DHT22;40963;52.168;21.296;2023-02-28T09:13:50;1.10;87.60
55064;DHT22;40963;52.168;21.296;2023-02-28T09:16:16;1.00;86.40
55064;DHT22;40963;52.168;21.296;2023-02-28T09:18:43;1.10;88.20
55064;DHT22;40963;52.168;21.296;2023-02-28T09:21:12;1.20;89.70
55064;DHT22;40963;52.168;21.296;2023-02-28T09:23:40;1.40;89.90
55064;DHT22;40963;52.168;21.296;2023-02-28T09:26:06;1.50;87.70
55064;DHT22;40963;52.168;21.296;2023-02-28T09:28:32;1.50;84.60
55064;DHT22;40963;52.168;21.296;2023-02-28T09:30:58;1.50;83.50
55064;DHT22;40963;52.168;21.296;2023-02-28T09:33:25;1.50;84.00
55064;DHT22;40963;52.168;21.296;2023-02-28T09:35:52;1.60;84.90
55064;DHT22;40963;52.168;21.296;2023-02-28T09:38:22;1.70;84.90
55064;DHT22;40963;52.168;21.296;2023-02-28T09:40:55;1.80;81.70
55064;DHT22;40963;52.168;21.296;2023-02-28T09:43:25;1.70;81.00
55064;DHT22;40963;52.168;21.296;2023-02-28T09:46:02;1.80;80.70
55064;DHT22;40963;52.168;21.296;2023-02-28T09:48:36;1.80;80.80
55064;DHT22;40963;52.168;21.296;2023-02-28T09:51:13;1.80;79.40
55064;DHT22;40963;52.168;21.296;2023-02-28T09:53:41;1.80;79.90
55064;DHT22;40963;52.168;21.296;2023-02-28T09:56:14;1.80;79.20
55064;DHT22;40963;52.168;21.296;2023-02-28T10:07:21;2.00;78.40
55064;DHT22;40963;52.168;21.296;2023-02-28T10:09:52;2.10;78.40
55064;DHT22;40963;52.168;21.296;2023-02-28T10:12:20;2.20;78.40
55064;DHT22;40963;52.168;21.296;2023-02-28T10:14:47;2.30;76.80
55064;DHT22;40963;52.168;21.296;2023-02-28T10:17:18;2.20;76.20
55064;DHT22;40963;52.168;21.296;2023-02-28T10:20:21;2.30;77.40
55064;DHT22;40963;52.168;21.296;2023-02-28T10:25:38;2.60;77.00
55064;DHT22;40963;52.168;21.296;2023-02-28T10:30:33;2.70;74.70
55064;DHT22;40963;52.168;21.296;2023-02-28T10:33:00;2.70;73.10
55064;DHT22;40963;52.168;21.296;2023-02-28T10:35:26;2.70;72.80
55064;DHT22;40963;52.168;21.296;2023-02-28T10:37:58;2.70;72.70
55064;DHT22;40963;52.168;21.296;2023-02-28T10:43:04;2.80;71.80
55064;DHT22;40963;52.168;21.296;2023-02-28T10:45:34;2.80;71.50
55064;DHT22;40963;52.168;21.296;2023-02-28T11:03:52;3.10;71.60
55064;DHT22;40963;52.168;21.296;2023-02-28T11:06:30;3.10;70.40
55064;DHT22;40963;52.168;21.296;2023-02-28T11:08:59;3.20;70.40
55064;DHT22;40963;52.168;21.296;2023-02-28T11:11:27;3.30;70.50
55064;DHT22;40963;52.168;21.296;2023-02-28T11:13:57;3.30;70.60
55064;DHT22;40963;52.168;21.296;2023-02-28T11:16:35;3.40;70.30
55064;DHT22;40963;52.168;21.296;2023-02-28T11:19:04;3.60;70.30
55064;DHT22;40963;52.168;21.296;2023-02-28T11:21:33;3.70;69.10
55064;DHT22;40963;52.168;21.296;2023-02-28T11:24:12;3.80;68.80
55064;DHT22;40963;52.168;21.296;2023-02-28T11:26:46;3.80;68.20
55064;DHT22;40963;52.168;21.296;2023-02-28T11:29:23;3.80;67.60
55064;DHT22;40963;52.168;21.296;2023-02-28T11:34:37;3.80;66.70
55064;DHT22;40963;52.168;21.296;2023-02-28T11:37:05;3.80;66.60
55064;DHT22;40963;52.168;21.296;2023-02-28T11:39:34;3.80;66.50
55064;DHT22;40963;52.168;21.296;2023-02-28T11:45:19;3.70;65.80
55064;DHT22;40963;52.168;21.296;2023-02-28T11:47:56;3.60;65.80
55064;DHT22;40963;52.168;21.296;2023-02-28T11:53:32;3.90;66.80
55064;DHT22;40963;52.168;21.296;2023-02-28T11:56:21;3.90;66.00
55064;DHT22;40963;52.168;21.296;2023-02-28T12:06:45;3.90;65.10
55064;DHT22;40963;52.168;21.296;2023-02-28T12:17:46;4.00;65.00
55064;DHT22;40963;52.168;21.296;2023-02-28T12:26:15;4.30;64.80
55064;DHT22;40963;52.168;21.296;2023-02-28T12:28:46;4.30;63.90
55064;DHT22;40963;52.168;21.296;2023-02-28T12:33:47;4.40;63.50
55064;DHT22;40963;52.168;21.296;2023-02-28T12:36:19;4.40;63.00
55064;DHT22;40963;52.168;21.296;2023-02-28T12:38:54;4.30;62.50
55064;DHT22;40963;52.168;21.296;2023-02-28T12:44:46;4.20;62.70
55064;DHT22;40963;52.168;21.296;2023-02-28T12:47:16;4.10;62.90
55064;DHT22;40963;52.168;21.296;2023-02-28T12:55:35;3.90;62.30
55064;DHT22;40963;52.168;21.296;2023-02-28T12:58:20;3.90;62.70
55064;DHT22;40963;52.168;21.296;2023-02-28T13:09:11;3.90;63.70
55064;DHT22;40963;52.168;21.296;2023-02-28T13:11:51;4.00;63.40
55064;DHT22;40963;52.168;21.296;2023-02-28T13:19:43;4.00;62.80
55064;DHT22;40963;52.168;21.296;2023-02-28T13:25:49;4.10;63.40
55064;DHT22;40963;52.168;21.296;2023-02-28T13:27:50;4.10;63.40
55064;DHT22;40963;52.168;21.296;2023-02-28T13:34:22;4.20;63.20
55064;DHT22;40963;52.168;21.296;2023-02-28T13:38:51;4.30;62.60
55064;DHT22;40963;52.168;21.296;2023-02-28T13:46:32;4.30;62.70
55064;DHT22;40963;52.168;21.296;2023-02-28T13:51:52;4.30;62.90
55064;DHT22;40963;52.168;21.296;2023-02-28T13:59:50;4.20;62.40
55064;DHT22;40963;52.168;21.296;2023-02-28T14:05:24;4.20;62.60
55064;DHT22;40963;52.168;21.296;2023-02-28T14:07:56;4.20;62.50
55064;DHT22;40963;52.168;21.296;2023-02-28T14:12:53;4.20;62.70
55064;DHT22;40963;52.168;21.296;2023-02-28T14:17:57;4.20;62.50
55064;DHT22;40963;52.168;21.296;2023-02-28T14:20:27;4.20;62.50
55064;DHT22;40963;52.168;21.296;2023-02-28T14:22:58;4.10;62.40
55064;DHT22;40963;52.168;21.296;2023-02-28T14:28:13;4.00;62.70
55064;DHT22;40963;52.168;21.296;2023-02-28T14:38:45;4.00;63.30
55064;DHT22;40963;52.168;21.296;2023-02-28T14:41:33;3.90;62.90
55064;DHT22;40963;52.168;21.296;2023-02-28T14:44:25;4.00;63.10
55064;DHT22;40963;52.168;21.296;2023-02-28T14:46:55;3.90;62.90
55064;DHT22;40963;52.168;21.296;2023-02-28T14:51:49;3.90;62.60
55064;DHT22;40963;52.168;21.296;2023-02-28T14:54:16;3.90;62.20
55064;DHT22;40963;52.168;21.296;2023-02-28T14:56:44;3.90;62.60
55064;DHT22;40963;52.168;21.296;2023-02-28T14:59:27;3.90;62.60
55064;DHT22;40963;52.168;21.296;2023-02-28T15:02:14;3.90;63.10
55064;DHT22;40963;52.168;21.296;2023-02-28T15:04:40;3.90;63.20
55064;DHT22;40963;52.168;21.296;2023-02-28T15:07:13;3.80;62.90
55064;DHT22;40963;52.168;21.296;2023-02-28T15:09:39;3.80;63.00
55064;DHT22;40963;52.168;21.296;2023-02-28T15:12:05;3.80;62.50
55064;DHT22;40963;52.168;21.296;2023-02-28T15:14:31;3.70;62.70
55064;DHT22;40963;52.168;21.296;2023-02-28T15:17:03;3.70;62.90
55064;DHT22;40963;52.168;21.296;2023-02-28T15:19:33;3.70;63.30
55064;DHT22;40963;52.168;21.296;2023-02-28T15:22:06;3.60;63.70
55064;DHT22;40963;52.168;21.296;2023-02-28T15:24:42;3.60;64.30
55064;DHT22;40963;52.168;21.296;2023-02-28T15:27:16;3.60;64.20
55064;DHT22;40963;52.168;21.296;2023-02-28T15:29:48;3.50;64.30
55064;DHT22;40963;52.168;21.296;2023-02-28T15:32:37;3.50;64.40
55064;DHT22;40963;52.168;21.296;2023-02-28T15:35:27;3.40;64.40
55064;DHT22;40963;52.168;21.296;2023-02-28T15:40:53;3.30;65.40
55064;DHT22;40963;52.168;21.296;2023-02-28T15:48:44;3.00;65.30
55064;DHT22;40963;52.168;21.296;2023-02-28T15:51:27;2.90;65.60
55064;DHT22;40963;52.168;21.296;2023-02-28T15:53:57;2.90;66.30
55064;DHT22;40963;52.168;21.296;2023-02-28T15:56:32;2.80;67.00
55064;DHT22;40963;52.168;21.296;2023-02-28T15:59:02;2.70;67.80
55064;DHT22;40963;52.168;21.296;2023-02-28T16:01:36;2.50;68.40
55064;DHT22;40963;52.168;21.296;2023-02-28T16:04:17;2.40;68.80
55064;DHT22;40963;52.168;21.296;2023-02-28T16:07:04;2.30;69.30
55064;DHT22;40963;52.168;21.296;2023-02-28T16:09:30;2.20;69.60
55064;DHT22;40963;52.168;21.296;2023-02-28T16:12:00;2.10;70.40
55064;DHT22;40963;52.168;21.296;2023-02-28T16:14:28;2.10;71.00
55064;DHT22;40963;52.168;21.296;2023-02-28T16:17:03;2.00;71.40
55064;DHT22;40963;52.168;21.296;2023-02-28T16:19:30;1.90;71.80
55064;DHT22;40963;52.168;21.296;2023-02-28T16:21:56;1.80;72.30
55064;DHT22;40963;52.168;21.296;2023-02-28T16:24:22;1.70;73.10
55064;DHT22;40963;52.168;21.296;2023-02-28T16:26:51;1.70;73.60
55064;DHT22;40963;52.168;21.296;2023-02-28T16:29:37;1.60;74.10
55064;DHT22;40963;52.168;21.296;2023-02-28T16:32:06;1.40;74.90
55064;DHT22;40963;52.168;21.296;2023-02-28T16:34:32;1.40;75.60
55064;DHT22;40963;52.168;21.296;2023-02-28T16:36:58;1.30;76.60
55064;DHT22;40963;52.168;21.296;2023-02-28T16:39:24;1.20;77.40
55064;DHT22;40963;52.168;21.296;2023-02-28T16:41:50;1.00;78.20
55064;DHT22;40963;52.168;21.296;2023-02-28T16:46:51;0.90;80.50
55064;DHT22;40963;52.168;21.296;2023-02-28T16:49:17;0.70;81.50
55064;DHT22;40963;52.168;21.296;2023-02-28T16:51:43;0.70;82.70
55064;DHT22;40963;52.168;21.296;2023-02-28T16:54:08;0.50;83.70
55064;DHT22;40963;52.168;21.296;2023-02-28T16:56:34;0.50;85.00
55064;DHT22;40963;52.168;21.296;2023-02-28T16:59:01;0.40;85.80
55064;DHT22;40963;52.168;21.296;2023-02-28T17:01:27;0.30;87.40
55064;DHT22;40963;52.168;21.296;2023-02-28T17:03:54;0.30;89.40
55064;DHT22;40963;52.168;21.296;2023-02-28T17:06:27;0.30;90.50
55064;DHT22;40963;52.168;21.296;2023-02-28T17:08:59;0.20;90.70
55064;DHT22;40963;52.168;21.296;2023-02-28T17:11:25;0.20;90.90
55064;DHT22;40963;52.168;21.296;2023-02-28T17:13:52;0.10;91.30
55064;DHT22;40963;52.168;21.296;2023-02-28T17:16:31;0.10;91.80
55064;DHT22;40963;52.168;21.296;2023-02-28T17:19:00;0.00;92.40
55064;DHT22;40963;52.168;21.296;2023-02-28T17:21:27;0.00;93.00
55064;DHT22;40963;52.168;21.296;2023-02-28T17:23:52;0.00;93.40
55064;DHT22;40963;52.168;21.296;2023-02-28T17:26:20;-0.10;93.50
55064;DHT22;40963;52.168;21.296;2023-02-28T17:28:53;-0.10;93.70
55064;DHT22;40963;52.168;21.296;2023-02-28T17:31:22;-0.20;94.00
55064;DHT22;40963;52.168;21.296;2023-02-28T17:33:47;-0.20;94.20
55064;DHT22;40963;52.168;21.296;2023-02-28T17:36:15;-0.30;94.40
55064;DHT22;40963;52.168;21.296;2023-02-28T17:38:41;-0.30;94.80
55064;DHT22;40963;52.168;21.296;2023-02-28T17:41:11;-0.30;94.90
55064;DHT22;40963;52.168;21.296;2023-02-28T17:43:37;-0.40;95.40
55064;DHT22;40963;52.168;21.296;2023-02-28T17:46:02;-0.40;95.70
55064;DHT22;40963;52.168;21.296;2023-02-28T17:48:30;-0.40;96.30
55064;DHT22;40963;52.168;21.296;2023-02-28T17:50:56;-0.50;96.40
55064;DHT22;40963;52.168;21.296;2023-02-28T17:53:22;-0.50;96.60
55064;DHT22;40963;52.168;21.296;2023-02-28T17:55:51;-0.50;96.70
55064;DHT22;40963;52.168;21.296;2023-02-28T17:58:17;-0.50;96.90
55064;DHT22;40963;52.168;21.296;2023-02-28T18:00:44;-0.60;97.20
55064;DHT22;40963;52.168;21.296;2023-02-28T18:03:10;-0.60;97.40
55064;DHT22;40963;52.168;21.296;2023-02-28T18:05:37;-0.60;97.80
55064;DHT22;40963;52.168;21.296;2023-02-28T18:08:03;-0.60;98.10
55064;DHT22;40963;52.168;21.296;2023-02-28T18:10:28;-0.70;98.40
55064;DHT22;40963;52.168;21.296;2023-02-28T18:12:58;-0.70;98.50
55064;DHT22;40963;52.168;21.296;2023-02-28T18:15:24;-0.70;98.60
55064;DHT22;40963;52.168;21.296;2023-02-28T18:17:50;-0.70;98.90
55064;DHT22;40963;52.168;21.296;2023-02-28T18:20:16;-0.80;99.00
55064;DHT22;40963;52.168;21.296;2023-02-28T18:22:42;-0.80;99.40
55064;DHT22;40963;52.168;21.296;2023-02-28T18:25:09;-0.90;99.60
55064;DHT22;40963;52.168;21.296;2023-02-28T18:27:39;-1.00;99.90
55064;DHT22;40963;52.168;21.296;2023-02-28T18:30:05;-1.00;99.90